Time;durP1;ratioP1;P1;durP2;ratioP2;P2;SDS_P1;SDS_P2;PMS_P1;PMS_P2;Temp;Humidity;BMP_temperature;BMP_pressure;BME280_temperature;BME280_humidity;BME280_pressure;Samples;Min_cycle;Max_cycle;Signal;HPM_P1;HPM_P2
2021/12/20 00:01:06;;;;;;;18.25;3.33;;;5.70;99.90;;;;;;5075938;28;20480;-74
2021/12/20 00:03:32;;;;;;;21.05;3.75;;;5.50;99.90;;;;;;5057659;28;20070;-73
2021/12/20 00:05:58;;;;;;;19.88;3.17;;;5.40;99.90;;;;;;5075567;28;20420;-74
2021/12/20 00:08:24;;;;;;;25.10;4.07;;;5.40;99.90;;;;;;5075584;28;20062;-74
2021/12/20 00:10:49;;;;;;;23.58;4.38;;;6.00;99.90;;;;;;5075484;28;20076;-74
2021/12/20 00:13:16;;;;;;;20.33;3.88;;;5.30;99.90;;;;;;5057292;28;20049;-73
2021/12/20 00:15:42;;;;;;;20.17;3.88;;;5.20;99.90;;;;;;5075419;28;20047;-73
2021/12/20 00:18:08;;;;;;;19.90;3.58;;;5.20;99.90;;;;;;5057032;28;20052;-73
2021/12/20 00:20:33;;;;;;;20.38;3.25;;;5.10;99.90;;;;;;5075636;28;20469;-74
2021/12/20 00:22:59;;;;;;;18.52;3.83;;;5.10;99.90;;;;;;5075459;28;20051;-76
2021/12/20 00:25:25;;;;;;;20.17;3.67;;;5.10;99.90;;;;;;5057547;28;20040;-74
2021/12/20 00:27:50;;;;;;;19.35;3.30;;;5.10;99.90;;;;;;5075424;28;20392;-75
2021/12/20 00:30:17;;;;;;;25.85;4.50;;;5.10;99.90;;;;;;5074493;28;20091;-74
2021/12/20 00:32:43;;;;;;;16.23;3.22;;;5.00;99.90;;;;;;5075381;28;20076;-73
2021/12/20 00:35:09;;;;;;;23.13;2.75;;;5.00;99.90;;;;;;5075158;28;20456;-73
2021/12/20 00:40:23;;;;;;;14.55;2.97;;;4.90;99.90;;;;;;5076242;28;20120;-75
2021/12/20 00:43:00;;;;;;;18.52;3.63;;;4.80;99.90;;;;;;5076443;28;20361;-74
2021/12/20 00:45:31;;;;;;;17.90;3.10;;;4.80;99.90;;;;;;5056017;28;20538;-75
2021/12/20 00:47:58;;;;;;;17.50;3.03;;;4.80;99.90;;;;;;5056848;28;20087;-76
2021/12/20 00:50:24;;;;;;;17.92;3.50;;;4.70;99.90;;;;;;5074869;28;20541;-76
2021/12/20 00:52:51;;;;;;;20.15;3.60;;;4.60;99.90;;;;;;5074671;28;20037;-74
2021/12/20 00:55:18;;;;;;;14.65;3.38;;;4.50;99.90;;;;;;5074674;28;20404;-74
2021/12/20 00:57:48;;;;;;;21.80;3.75;;;4.50;99.90;;;;;;5074694;28;20047;-73
2021/12/20 01:00:20;;;;;;;15.43;3.22;;;4.40;99.90;;;;;;5074783;28;20123;-73
2021/12/20 01:02:46;;;;;;;24.45;3.65;;;4.40;99.90;;;;;;5056338;28;20095;-74
2021/12/20 01:05:13;;;;;;;21.92;3.58;;;4.30;99.90;;;;;;5074656;28;20119;-75
2021/12/20 01:07:39;;;;;;;22.35;3.60;;;4.20;99.90;;;;;;5074579;28;20480;-75
2021/12/20 01:10:08;;;;;;;15.85;3.10;;;4.10;99.90;;;;;;5056327;28;20040;-75
2021/12/20 01:12:44;;;;;;;16.80;3.47;;;4.10;99.90;;;;;;5074289;28;20045;-73
2021/12/20 01:15:16;;;;;;;18.30;3.10;;;4.00;99.90;;;;;;5074500;28;20083;-75
2021/12/20 01:17:42;;;;;;;17.25;3.45;;;3.90;99.90;;;;;;5073989;28;20045;-77
2021/12/20 01:20:09;;;;;;;14.68;3.35;;;3.90;99.90;;;;;;5074188;28;20139;-74
2021/12/20 01:22:35;;;;;;;15.65;2.95;;;3.90;99.90;;;;;;5074045;28;20130;-76
2021/12/20 01:25:00;;;;;;;19.08;3.28;;;3.80;99.90;;;;;;5056319;28;20109;-75
2021/12/20 01:27:26;;;;;;;17.52;3.58;;;3.80;99.90;;;;;;5056425;28;20141;-77
2021/12/20 01:29:52;;;;;;;11.65;2.92;;;3.70;99.90;;;;;;5056557;28;20052;-75
2021/12/20 01:32:17;;;;;;;17.98;2.72;;;3.70;99.90;;;;;;5074125;28;20072;-76
2021/12/20 01:34:43;;;;;;;20.58;3.28;;;4.30;99.90;;;;;;5073819;28;20074;-77
2021/12/20 01:37:09;;;;;;;15.32;3.15;;;3.60;99.90;;;;;;5056435;28;20396;-73
2021/12/20 01:39:34;;;;;;;14.95;2.65;;;3.60;99.90;;;;;;5073820;28;20502;-76
2021/12/20 01:42:03;;;;;;;18.25;3.03;;;3.60;99.90;;;;;;5056297;28;20045;-74
2021/12/20 01:44:30;;;;;;;19.63;2.88;;;4.20;99.90;;;;;;5055946;28;20051;-75
2021/12/20 01:46:56;;;;;;;16.90;3.25;;;4.10;99.90;;;;;;5073840;28;20044;-77
2021/12/20 01:49:22;;;;;;;14.90;3.08;;;3.80;99.90;;;;;;5073330;28;20036;-77
2021/12/20 01:52:13;;;;;;;14.10;3.03;;;3.40;99.90;;;;;;5055495;28;20127;-75
2021/12/20 01:54:37;;;;;;;18.13;3.30;;;3.30;99.90;;;;;;5042019;28;20132;-75
2021/12/20 01:57:03;;;;;;;20.30;3.65;;;3.20;99.90;;;;;;5073418;28;20547;-77
2021/12/20 01:59:29;;;;;;;20.73;3.78;;;3.20;99.90;;;;;;5073765;28;20067;-75
2021/12/20 02:01:54;;;;;;;16.02;3.25;;;3.10;99.90;;;;;;5055761;28;20040;-78
2021/12/20 02:04:21;;;;;;;13.50;3.95;;;3.10;99.90;;;;;;5073242;28;20044;-75
2021/12/20 02:06:48;;;;;;;11.77;2.80;;;3.10;99.90;;;;;;5038677;28;20127;-76
2021/12/20 02:09:17;;;;;;;18.10;3.50;;;3.10;99.90;;;;;;5073536;28;20517;-70
2021/12/20 02:11:46;;;;;;;17.92;3.53;;;3.00;99.90;;;;;;5055802;28;20036;-72
2021/12/20 02:14:13;;;;;;;13.00;2.40;;;2.90;99.90;;;;;;5073623;28;20178;-74
2021/12/20 02:16:40;;;;;;;11.90;2.47;;;2.90;99.90;;;;;;5073514;28;20048;-75
2021/12/20 02:19:09;;;;;;;20.60;3.47;;;2.90;99.90;;;;;;5055161;28;20052;-75
2021/12/20 02:21:37;;;;;;;15.38;2.63;;;2.80;99.90;;;;;;5072870;28;20053;-78
2021/12/20 02:24:03;;;;;;;18.83;3.45;;;2.80;99.90;;;;;;5055065;28;20038;-76
2021/12/20 02:26:29;;;;;;;13.90;2.90;;;2.70;99.90;;;;;;5055011;28;20044;-72
2021/12/20 02:28:58;;;;;;;19.52;2.97;;;2.70;99.90;;;;;;5038572;28;20036;-73
2021/12/20 02:37:17;;;;;;;17.55;3.17;;;2.60;99.90;;;;;;5072514;28;20067;-75
2021/12/20 02:39:43;;;;;;;12.02;2.38;;;2.60;99.90;;;;;;5072856;28;20048;-75
2021/12/20 02:42:12;;;;;;;15.45;2.67;;;2.60;99.90;;;;;;5072888;28;20055;-73
2021/12/20 02:44:44;;;;;;;19.08;3.25;;;2.50;99.90;;;;;;5072775;28;20045;-74
2021/12/20 02:47:15;;;;;;;17.33;3.33;;;2.50;99.90;;;;;;5073116;28;20127;-77
2021/12/20 02:49:43;;;;;;;17.05;2.92;;;2.40;99.90;;;;;;5037366;28;20131;-76
2021/12/20 02:52:09;;;;;;;19.73;3.08;;;2.30;99.90;;;;;;5072456;28;20056;-76
2021/12/20 02:54:35;;;;;;;16.10;2.40;;;2.30;99.90;;;;;;5072741;28;20377;-74
2021/12/20 02:57:01;;;;;;;17.67;3.05;;;2.30;99.90;;;;;;5072768;28;20040;-75
2021/12/20 02:59:28;;;;;;;12.20;2.88;;;2.30;99.90;;;;;;5072654;28;20044;-74
2021/12/20 03:01:57;;;;;;;15.52;2.97;;;2.40;99.90;;;;;;5055010;28;20103;-76
2021/12/20 03:04:23;;;;;;;14.20;3.05;;;2.20;99.90;;;;;;5054531;28;20131;-74
2021/12/20 03:06:53;;;;;;;16.20;2.75;;;2.20;99.90;;;;;;5037870;28;20128;-74
2021/12/20 03:09:22;;;;;;;13.18;2.63;;;2.20;99.90;;;;;;5075015;28;20041;-75
2021/12/20 03:11:55;;;;;;;13.52;2.85;;;2.10;99.90;;;;;;5076584;28;20072;-75
2021/12/20 03:14:28;;;;;;;14.77;3.88;;;2.10;99.90;;;;;;5042198;28;20484;-71
2021/12/20 03:16:54;;;;;;;13.02;2.17;;;2.10;99.90;;;;;;5042075;28;20499;-75
2021/12/20 03:19:20;;;;;;;15.65;2.33;;;2.00;99.90;;;;;;5057977;28;20492;-74
2021/12/20 03:21:46;;;;;;;15.20;2.17;;;1.90;99.90;;;;;;5058564;28;20077;-72
2021/12/20 03:24:11;;;;;;;8.80;2.45;;;1.90;99.90;;;;;;5057832;28;20036;-72
2021/12/20 03:26:37;;;;;;;11.70;1.58;;;1.80;99.90;;;;;;5076152;28;20036;-74
2021/12/20 03:29:05;;;;;;;9.57;1.63;;;1.70;99.90;;;;;;5058368;28;20373;-74
2021/12/20 03:31:31;;;;;;;10.98;1.55;;;1.60;99.90;;;;;;5076183;28;20533;-74
2021/12/20 03:33:57;;;;;;;8.73;1.52;;;1.60;99.90;;;;;;5076118;28;20048;-74
2021/12/20 03:36:23;;;;;;;7.63;1.67;;;1.60;99.90;;;;;;5058079;28;20052;-76
2021/12/20 03:38:49;;;;;;;11.52;1.73;;;1.60;99.90;;;;;;5076039;28;20430;-75
2021/12/20 03:41:15;;;;;;;8.32;1.80;;;1.60;99.90;;;;;;5075523;28;20424;-76
2021/12/20 03:43:41;;;;;;;11.05;2.45;;;1.60;99.90;;;;;;5074731;28;20041;-73
2021/12/20 03:46:06;;;;;;;11.43;2.47;;;1.50;99.90;;;;;;5075968;28;20032;-73
2021/12/20 03:48:33;;;;;;;10.98;1.60;;;1.50;99.90;;;;;;5076203;28;20037;-73
2021/12/20 03:51:03;;;;;;;18.30;3.97;;;1.40;99.90;;;;;;5057889;28;20052;-75
2021/12/20 03:53:30;;;;;;;14.80;2.40;;;1.40;99.90;;;;;;5075830;28;20094;-74
2021/12/20 03:55:56;;;;;;;12.75;2.20;;;1.40;99.90;;;;;;5075159;28;20056;-74
2021/12/20 03:58:23;;;;;;;13.63;2.67;;;1.50;99.90;;;;;;5075688;28;20076;-76
2021/12/20 04:00:49;;;;;;;10.70;2.10;;;1.40;99.90;;;;;;5075705;28;20041;-75
2021/12/20 04:03:15;;;;;;;17.70;3.13;;;1.40;99.90;;;;;;5058148;28;20053;-76
2021/12/20 04:05:42;;;;;;;14.25;2.72;;;1.40;99.90;;;;;;5057734;28;20484;-74
2021/12/20 04:08:08;;;;;;;11.43;2.47;;;1.40;99.90;;;;;;5075586;28;20441;-71
2021/12/20 04:10:34;;;;;;;18.27;2.55;;;1.40;99.90;;;;;;5057585;28;20507;-73
2021/12/20 04:13:00;;;;;;;12.68;1.85;;;2.30;99.90;;;;;;5074869;28;20045;-74
2021/12/20 04:15:26;;;;;;;14.27;2.33;;;1.40;99.90;;;;;;5075501;28;20493;-75
2021/12/20 04:17:52;;;;;;;11.05;2.20;;;1.30;99.90;;;;;;5057515;28;20056;-74
2021/12/20 04:20:18;;;;;;;11.20;2.58;;;1.30;99.90;;;;;;5074754;28;20052;-76
2021/12/20 04:22:44;;;;;;;15.90;2.80;;;1.30;99.90;;;;;;5075308;28;20041;-75
2021/12/20 04:25:10;;;;;;;16.02;2.40;;;1.30;99.90;;;;;;5075162;28;20059;-73
2021/12/20 04:27:36;;;;;;;14.10;2.17;;;1.20;99.90;;;;;;5074644;28;20045;-75
2021/12/20 04:30:09;;;;;;;16.42;2.42;;;1.30;99.90;;;;;;5075124;28;20506;-75
2021/12/20 04:32:35;;;;;;;16.25;2.38;;;1.20;99.90;;;;;;5057298;28;20040;-75
2021/12/20 04:35:00;;;;;;;14.10;2.60;;;1.20;99.90;;;;;;5075098;28;20440;-74
2021/12/20 04:37:26;;;;;;;18.92;2.72;;;1.20;99.90;;;;;;5075028;28;20087;-71
2021/12/20 04:39:52;;;;;;;10.60;2.65;;;1.20;99.90;;;;;;5074855;28;20136;-76
2021/12/20 04:42:18;;;;;;;9.18;1.92;;;1.20;99.90;;;;;;5074638;28;20054;-79
2021/12/20 04:44:44;;;;;;;11.02;2.55;;;1.20;99.90;;;;;;5074518;28;20437;-73
2021/12/20 04:47:10;;;;;;;11.88;2.35;;;1.10;99.90;;;;;;5056849;28;20083;-74
2021/12/20 04:49:36;;;;;;;13.27;2.17;;;1.00;99.90;;;;;;5074579;28;20044;-72
2021/12/20 04:52:02;;;;;;;15.85;2.80;;;1.00;99.90;;;;;;5074711;28;20044;-75
2021/12/20 04:54:27;;;;;;;18.15;2.65;;;1.00;99.90;;;;;;5040017;28;20120;-75
2021/12/20 04:56:53;;;;;;;10.57;2.20;;;1.00;99.90;;;;;;5074507;28;20120;-71
2021/12/20 04:59:19;;;;;;;21.17;2.78;;;1.00;99.90;;;;;;5056162;28;20041;-73
2021/12/20 05:01:44;;;;;;;14.52;2.20;;;0.90;99.90;;;;;;5074674;28;20144;-72
2021/12/20 05:04:10;;;;;;;14.90;2.53;;;0.90;99.90;;;;;;5056572;28;20045;-73
2021/12/20 05:06:36;;;;;;;13.90;2.50;;;0.90;99.90;;;;;;5039721;28;20091;-75
2021/12/20 05:09:04;;;;;;;10.32;2.60;;;0.90;99.90;;;;;;5056339;28;20094;-75
2021/12/20 05:11:33;;;;;;;15.50;2.60;;;0.80;99.90;;;;;;5074096;28;20041;-75
2021/12/20 05:13:59;;;;;;;13.38;2.65;;;0.80;99.90;;;;;;5066146;28;20522;-74
2021/12/20 05:16:25;;;;;;;12.32;2.53;;;0.80;99.90;;;;;;5055803;28;20085;-73
2021/12/20 05:18:51;;;;;;;15.30;3.03;;;0.80;99.90;;;;;;5071961;28;20469;-74
2021/12/20 05:21:18;;;;;;;12.30;2.40;;;0.70;99.90;;;;;;5073971;28;20408;-76
2021/12/20 05:23:43;;;;;;;11.63;2.97;;;0.80;99.90;;;;;;5074056;28;20475;-75
2021/12/20 05:26:09;;;;;;;14.05;3.97;;;0.80;99.90;;;;;;5056190;28;20047;-74
2021/12/20 05:28:34;;;;;;;16.35;2.17;;;0.70;99.90;;;;;;5056075;28;20048;-73
2021/12/20 05:31:00;;;;;;;12.93;3.15;;;0.70;99.90;;;;;;5038013;28;20056;-76
2021/12/20 05:33:27;;;;;;;9.32;1.95;;;0.80;99.90;;;;;;5073701;28;20055;-71
2021/12/20 05:35:53;;;;;;;11.68;1.75;;;1.00;99.90;;;;;;5073819;28;20503;-74
2021/12/20 05:38:19;;;;;;;25.77;2.22;;;0.40;99.90;;;;;;5073840;28;20044;-78
2021/12/20 05:40:45;;;;;;;5.90;1.23;;;0.40;99.90;;;;;;5056069;28;20047;-76
2021/12/20 05:43:11;;;;;;;4.13;1.15;;;0.30;99.90;;;;;;5055696;28;20123;-73
2021/12/20 05:45:37;;;;;;;5.00;1.10;;;0.40;99.90;;;;;;5055755;28;20055;-76
2021/12/20 05:48:03;;;;;;;1.77;1.02;;;1.90;99.90;;;;;;5073172;28;20040;-71
2021/12/20 05:50:29;;;;;;;2.72;0.85;;;0.30;99.90;;;;;;5055273;28;20093;-71
2021/12/20 05:52:55;;;;;;;1.77;0.60;;;0.30;99.90;;;;;;5073460;28;20120;-73
2021/12/20 05:55:20;;;;;;;4.10;0.80;;;0.30;99.90;;;;;;5073529;28;20167;-73
2021/12/20 05:57:47;;;;;;;5.10;0.70;;;0.30;99.90;;;;;;5073259;28;20051;-76
2021/12/20 06:00:17;;;;;;;12.65;1.20;;;0.30;99.90;;;;;;5073572;28;20059;-72
2021/12/20 06:02:45;;;;;;;6.38;1.70;;;0.20;99.90;;;;;;5073083;28;20036;-74
2021/12/20 06:05:12;;;;;;;27.33;1.95;;;0.20;99.90;;;;;;5073548;28;20040;-74
2021/12/20 06:07:41;;;;;;;41.03;3.70;;;0.10;99.90;;;;;;5055113;28;20484;-76
2021/12/20 06:10:09;;;;;;;17.92;1.30;;;0.10;99.90;;;;;;5073305;28;20492;-71
2021/12/20 06:12:35;;;;;;;39.55;3.03;;;0.00;99.90;;;;;;5055347;28;20045;-72
2021/12/20 06:15:05;;;;;;;9.02;1.30;;;0.00;99.90;;;;;;5073566;28;20036;-72
2021/12/20 06:17:31;;;;;;;14.77;1.42;;;-0.10;99.90;;;;;;5073438;28;20039;-73
2021/12/20 06:19:56;;;;;;;19.20;2.00;;;0.00;99.90;;;;;;5072609;28;20044;-73
2021/12/20 06:22:22;;;;;;;6.32;1.40;;;0.00;99.90;;;;;;5072817;28;20053;-71
2021/12/20 06:24:47;;;;;;;5.20;1.15;;;0.00;99.90;;;;;;5073106;28;20102;-75
2021/12/20 06:27:13;;;;;;;3.13;0.95;;;0.00;99.90;;;;;;5072967;28;20048;-73
2021/12/20 06:29:39;;;;;;;4.13;0.70;;;0.00;99.90;;;;;;5054812;28;20052;-70
2021/12/20 06:32:05;;;;;;;4.82;1.00;;;0.00;99.90;;;;;;5072991;28;20447;-73
2021/12/20 06:34:30;;;;;;;7.45;1.10;;;0.00;99.90;;;;;;5054516;28;20099;-73
2021/12/20 06:36:56;;;;;;;4.05;0.93;;;-0.10;99.90;;;;;;5054547;28;20056;-74
2021/12/20 06:39:23;;;;;;;6.45;1.27;;;-0.10;99.90;;;;;;5074421;28;20411;-73
2021/12/20 06:41:50;;;;;;;4.88;1.23;;;0.00;99.90;;;;;;5055622;28;20036;-74
2021/12/20 06:44:17;;;;;;;4.45;1.10;;;-0.10;99.90;;;;;;5077001;28;20091;-71
2021/12/20 06:46:43;;;;;;;9.30;2.00;;;-0.10;99.90;;;;;;5059096;28;20045;-74
2021/12/20 06:49:10;;;;;;;6.40;2.03;;;0.80;99.90;;;;;;5076836;28;20047;-72
2021/12/20 06:51:42;;;;;;;7.80;1.98;;;0.00;99.90;;;;;;5076396;28;20047;-72
2021/12/20 06:54:15;;;;;;;9.68;1.65;;;0.00;99.90;;;;;;5077083;28;20060;-72
2021/12/20 06:56:41;;;;;;;8.82;1.08;;;0.00;99.90;;;;;;5059082;28;20393;-74
2021/12/20 06:59:07;;;;;;;4.97;1.38;;;0.00;99.90;;;;;;5077016;28;20060;-71
2021/12/20 07:01:33;;;;;;;6.47;1.48;;;-0.10;99.90;;;;;;5076928;28;20054;-71
2021/12/20 07:04:01;;;;;;;4.90;1.73;;;-0.10;99.90;;;;;;5058562;28;20044;-71
2021/12/20 07:06:26;;;;;;;7.18;1.83;;;-0.10;99.90;;;;;;5076225;28;20092;-74
2021/12/20 07:08:52;;;;;;;4.03;1.20;;;-0.10;99.90;;;;;;5058813;28;20080;-77
2021/12/20 07:11:18;;;;;;;9.00;2.22;;;-0.10;99.90;;;;;;5041653;28;20049;-74
2021/12/20 07:13:43;;;;;;;9.65;1.70;;;-0.20;99.90;;;;;;5076546;28;20055;-71
2021/12/20 07:16:09;;;;;;;7.20;1.10;;;-0.30;99.90;;;;;;5076444;28;20048;-69
2021/12/20 07:18:35;;;;;;;8.43;1.15;;;-0.30;99.90;;;;;;5057703;28;20096;-72
2021/12/20 07:21:01;;;;;;;3.65;1.25;;;-0.30;99.90;;;;;;5076437;28;20055;-71
2021/12/20 07:23:27;;;;;;;6.93;1.30;;;-0.30;99.90;;;;;;5075804;28;20044;-68
2021/12/20 07:25:53;;;;;;;6.93;1.75;;;-0.30;99.90;;;;;;5075488;28;20080;-73
2021/12/20 07:28:19;;;;;;;5.35;1.50;;;-0.30;99.90;;;;;;5076239;28;20099;-72
2021/12/20 07:30:46;;;;;;;9.05;2.60;;;-0.40;99.90;;;;;;5076344;28;20080;-73
2021/12/20 07:33:12;;;;;;;14.82;1.88;;;-0.40;99.90;;;;;;5076142;28;20051;-73
2021/12/20 07:35:38;;;;;;;4.07;1.42;;;-0.50;99.90;;;;;;5058207;28;20123;-74
2021/12/20 07:38:04;;;;;;;5.68;1.70;;;0.20;99.90;;;;;;5075671;28;20036;-73
2021/12/20 07:40:30;;;;;;;10.50;2.30;;;-0.50;99.90;;;;;;5075947;28;20120;-72
2021/12/20 07:42:56;;;;;;;3.85;1.20;;;-0.40;99.90;;;;;;5075813;28;20047;-72
2021/12/20 07:45:23;;;;;;;6.78;1.65;;;-0.40;99.90;;;;;;5058221;28;20040;-72
2021/12/20 07:47:49;;;;;;;5.47;1.67;;;-0.40;99.90;;;;;;5058032;28;20037;-73
2021/12/20 07:50:16;;;;;;;7.25;2.22;;;-0.50;99.90;;;;;;5075673;28;20514;-73
2021/12/20 07:52:42;;;;;;;10.70;2.45;;;-0.40;99.90;;;;;;5057707;28;20051;-71
2021/12/20 07:55:08;;;;;;;15.60;3.72;;;-0.50;99.90;;;;;;5074736;28;20654;-71
2021/12/20 07:57:34;;;;;;;16.25;4.00;;;-0.50;99.90;;;;;;5075603;28;20130;-76
2021/12/20 07:59:59;;;;;;;20.05;5.10;;;-0.40;99.90;;;;;;5057980;28;20492;-71
2021/12/20 08:02:25;;;;;;;21.40;3.95;;;-0.40;99.90;;;;;;5075882;28;20500;-81
2021/12/20 08:04:51;;;;;;;11.68;2.38;;;-0.40;99.90;;;;;;5037536;28;20056;-72
2021/12/20 08:07:18;;;;;;;18.23;3.67;;;-0.40;99.90;;;;;;5054110;28;20045;-74
2021/12/20 08:09:44;;;;;;;12.68;3.75;;;-0.40;99.90;;;;;;5054027;28;20048;-74
2021/12/20 08:12:10;;;;;;;8.77;3.33;;;-0.40;99.90;;;;;;5054319;28;20041;-72
2021/12/20 08:14:36;;;;;;;12.43;2.47;;;-0.40;99.90;;;;;;5036267;28;20060;-75
2021/12/20 08:17:02;;;;;;;9.13;2.10;;;-0.30;99.90;;;;;;5045236;28;20063;-71
2021/12/20 08:19:28;;;;;;;11.27;3.17;;;-0.40;99.90;;;;;;5056560;28;20562;-73
2021/12/20 08:21:53;;;;;;;6.85;2.30;;;-0.40;99.90;;;;;;5074277;28;20048;-73
2021/12/20 08:24:19;;;;;;;7.07;2.25;;;-0.30;99.90;;;;;;5074044;28;20048;-73
2021/12/20 08:26:47;;;;;;;5.93;1.73;;;-0.40;99.90;;;;;;5073850;28;20079;-68
2021/12/20 08:29:13;;;;;;;3.72;1.30;;;-0.40;99.90;;;;;;5039912;28;20045;-71
2021/12/20 08:31:39;;;;;;;5.72;1.27;;;-0.50;99.90;;;;;;5074726;28;20040;-69
2021/12/20 08:34:05;;;;;;;5.93;2.08;;;-0.60;99.90;;;;;;5056348;28;20109;-71
2021/12/20 08:36:31;;;;;;;4.10;1.25;;;-0.60;99.90;;;;;;5074047;28;20098;-72
2021/12/20 08:38:57;;;;;;;6.22;1.48;;;-0.60;99.90;;;;;;5056607;28;20040;-71
2021/12/20 08:41:22;;;;;;;6.32;1.83;;;-0.60;99.90;;;;;;5073266;28;20484;-71
2021/12/20 08:43:48;;;;;;;8.05;1.70;;;-0.60;99.90;;;;;;5073457;28;20079;-70
2021/12/20 08:46:15;;;;;;;23.50;2.35;;;-0.70;99.90;;;;;;5073741;28;20044;-71
2021/12/20 08:48:42;;;;;;;28.83;2.90;;;-0.60;99.90;;;;;;5074001;28;20060;-72
2021/12/20 08:51:09;;;;;;;27.35;2.75;;;-0.70;99.90;;;;;;5056053;28;20086;-72
2021/12/20 08:53:35;;;;;;;28.35;2.65;;;-0.70;99.90;;;;;;5073523;28;20512;-74
2021/12/20 08:56:01;;;;;;;25.75;2.72;;;-0.70;99.90;;;;;;5055911;28;20244;-70
2021/12/20 08:58:27;;;;;;;16.27;3.03;;;-0.70;99.90;;;;;;5055112;28;20123;-82
2021/12/20 09:00:54;;;;;;;18.80;2.95;;;-0.60;99.90;;;;;;5055668;28;20056;-74
2021/12/20 09:03:21;;;;;;;22.05;3.63;;;-0.60;99.90;;;;;;5046147;28;20492;-69
2021/12/20 09:05:47;;;;;;;21.38;6.45;;;-0.50;99.90;;;;;;5050490;28;20420;-76
2021/12/20 09:08:15;;;;;;;22.08;5.88;;;-0.30;99.90;;;;;;5066410;28;20029;-76
2021/12/20 09:10:41;;;;;;;27.50;7.13;;;-0.30;99.90;;;;;;5062870;28;20041;-74
2021/12/20 09:13:07;;;;;;;47.67;7.60;;;-0.20;99.90;;;;;;5062845;28;20036;-71
2021/12/20 09:15:33;;;;;;;30.23;7.15;;;-0.10;99.90;;;;;;5051257;28;20052;-72
2021/12/20 09:17:59;;;;;;;37.17;7.05;;;-0.10;99.90;;;;;;5056526;28;20036;-69
2021/12/20 09:20:27;;;;;;;129.32;10.10;;;0.00;99.90;;;;;;5053519;28;20052;-71
2021/12/20 09:22:58;;;;;;;137.57;10.10;;;0.10;99.90;;;;;;5034207;28;20060;-70
2021/12/20 09:25:26;;;;;;;115.90;8.18;;;0.10;99.90;;;;;;5053152;28;20099;-69
2021/12/20 09:27:54;;;;;;;134.10;7.55;;;0.10;99.90;;;;;;5052491;28;20044;-69
2021/12/20 09:30:22;;;;;;;153.07;8.82;;;0.10;99.90;;;;;;5052772;28;20036;-72
2021/12/20 09:32:48;;;;;;;207.68;10.82;;;0.10;99.90;;;;;;5052950;28;20044;-75
2021/12/20 09:35:15;;;;;;;107.32;7.30;;;0.10;99.90;;;;;;5034855;28;20045;-71
2021/12/20 09:37:40;;;;;;;72.18;5.40;;;0.10;99.90;;;;;;5053359;28;20047;-72
2021/12/20 09:40:14;;;;;;;56.95;4.38;;;0.10;99.90;;;;;;5052357;28;20496;-73
2021/12/20 09:42:53;;;;;;;47.83;4.60;;;0.20;99.90;;;;;;5053131;28;20132;-83
2021/12/20 09:45:21;;;;;;;54.58;4.25;;;0.20;99.90;;;;;;5052079;28;20434;-76
2021/12/20 09:47:48;;;;;;;48.20;4.38;;;0.20;99.90;;;;;;5034425;28;20099;-81
2021/12/20 09:50:14;;;;;;;39.50;3.63;;;0.20;99.90;;;;;;5053222;28;20044;-82
2021/12/20 09:52:44;;;;;;;44.33;3.40;;;0.20;99.90;;;;;;5053374;28;20037;-72
2021/12/20 09:55:11;;;;;;;34.28;3.67;;;0.20;99.90;;;;;;5035590;28;20408;-80
2021/12/20 09:57:39;;;;;;;21.13;3.05;;;0.30;99.90;;;;;;5052291;28;20049;-76
2021/12/20 10:00:08;;;;;;;25.65;3.15;;;0.40;99.90;;;;;;5052380;28;20527;-72
2021/12/20 10:02:34;;;;;;;33.28;3.08;;;0.40;99.90;;;;;;5052471;28;20047;-83
2021/12/20 10:04:59;;;;;;;33.38;3.65;;;0.40;99.90;;;;;;5051466;28;20500;-69
2021/12/20 10:07:28;;;;;;;32.25;3.05;;;0.50;99.90;;;;;;5035100;28;20065;-71
2021/12/20 10:09:53;;;;;;;23.00;2.28;;;0.50;99.90;;;;;;5033788;28;20123;-70
2021/12/20 10:12:24;;;;;;;16.52;2.42;;;0.40;99.90;;;;;;5053006;28;20049;-74
2021/12/20 10:15:05;;;;;;;16.25;2.60;;;0.50;99.90;;;;;;5039125;28;20543;-74
2021/12/20 10:17:51;;;;;;;20.83;2.90;;;0.50;99.90;;;;;;5064705;28;20048;-73
2021/12/20 10:20:37;;;;;;;19.10;2.63;;;0.60;99.90;;;;;;5064221;28;20128;-68
2021/12/20 10:23:22;;;;;;;6.93;2.10;;;0.60;99.90;;;;;;5062303;28;20040;-74
2021/12/20 10:25:54;;;;;;;6.47;2.22;;;0.80;99.90;;;;;;5060851;28;20408;-73
2021/12/20 10:28:24;;;;;;;;;;;0.70;99.90;;;;;;5058867;28;20041;-72
2021/12/20 10:30:57;;;;;;;5.63;2.10;;;0.80;99.90;;;;;;5044414;28;19927;-69
2021/12/20 10:33:23;;;;;;;;;;;0.90;99.90;;;;;;5057402;28;20049;-68
2021/12/20 10:35:53;;;;;;;7.20;2.40;;;1.00;99.90;;;;;;5057714;28;19927;-69
2021/12/20 10:38:21;;;;;;;7.38;2.53;;;1.10;99.90;;;;;;5058454;28;20055;-69
2021/12/20 10:41:01;;;;;;;10.45;2.65;;;1.10;99.90;;;;;;5062454;28;20428;-69
2021/12/20 10:43:34;;;;;;;6.93;2.58;;;1.20;99.90;;;;;;5040069;28;20082;-69
2021/12/20 10:46:09;;;;;;;9.57;3.42;;;1.20;99.90;;;;;;5035987;28;20095;-69
2021/12/20 10:48:35;;;;;;;10.02;3.50;;;1.40;99.90;;;;;;5060006;28;20099;-70
2021/12/20 10:51:01;;;;;;;10.00;3.70;;;1.50;99.90;;;;;;5038486;28;20416;-68
2021/12/20 10:53:27;;;;;;;8.82;3.33;;;1.50;99.90;;;;;;5057678;28;20040;-68
2021/12/20 10:56:12;;;;;;;11.40;3.65;;;1.70;99.90;;;;;;5039613;28;20096;-68
2021/12/20 10:58:38;;;;;;;11.35;3.13;;;1.70;99.90;;;;;;5042365;28;20051;-69
2021/12/20 11:03:57;;;;;;;9.43;3.15;;;1.90;99.90;;;;;;5060700;28;20044;-69
2021/12/20 11:09:07;;;;;;;9.93;3.72;;;3.00;99.90;;;;;;5038656;28;20395;-72
2021/12/20 11:11:39;;;;;;;12.55;4.00;;;2.10;99.90;;;;;;5023546;28;20524;-72
2021/12/20 11:14:06;;;;;;;11.63;3.92;;;2.20;99.90;;;;;;5055074;28;20128;-73
2021/12/20 11:16:39;;;;;;;12.75;3.38;;;2.30;99.90;;;;;;5061844;28;20075;-75
2021/12/20 11:19:08;;;;;;;12.48;3.92;;;2.40;99.90;;;;;;5038357;28;20098;-71
2021/12/20 11:21:35;;;;;;;17.48;4.28;;;2.50;99.90;;;;;;5062238;28;20045;-73
2021/12/20 11:24:01;;;;;;;12.65;3.90;;;2.60;99.90;;;;;;5061877;28;20140;-75
2021/12/20 11:26:27;;;;;;;13.00;3.97;;;2.70;99.90;;;;;;5060770;28;20135;-73
2021/12/20 11:28:57;;;;;;;10.65;4.07;;;2.70;99.90;;;;;;5062271;28;20101;-73
2021/12/20 11:31:23;;;;;;;14.35;3.90;;;2.80;99.90;;;;;;5064064;28;20152;-69
2021/12/20 11:33:49;;;;;;;13.48;3.55;;;3.00;99.90;;;;;;5061681;28;20392;-72
2021/12/20 11:36:15;;;;;;;15.25;4.00;;;3.70;99.90;;;;;;5061750;28;20097;-73
2021/12/20 11:38:41;;;;;;;15.02;3.95;;;3.20;99.90;;;;;;5044335;28;20056;-71
2021/12/20 11:41:07;;;;;;;14.15;4.72;;;3.30;99.90;;;;;;5045893;28;20055;-79
2021/12/20 11:43:33;;;;;;;17.52;5.05;;;3.40;99.90;;;;;;5045687;28;20045;-83
2021/12/20 11:46:01;;;;;;;18.17;4.15;;;3.50;99.90;;;;;;5048062;28;20059;-74
2021/12/20 11:48:29;;;;;;;16.35;4.38;;;3.70;99.90;;;;;;5063288;28;20045;-75
2021/12/20 11:50:57;;;;;;;19.95;4.82;;;3.70;99.90;;;;;;5067022;28;20105;-75
2021/12/20 11:53:23;;;;;;;15.65;3.80;;;3.70;99.90;;;;;;5066746;28;20398;-74
2021/12/20 11:55:51;;;;;;;13.73;3.45;;;3.80;99.90;;;;;;5066336;28;20033;-76
2021/12/20 11:58:31;;;;;;;17.60;4.18;;;3.80;99.90;;;;;;5066700;28;20037;-74
2021/12/20 12:01:02;;;;;;;12.43;3.30;;;3.90;99.90;;;;;;5046157;28;20517;-74
2021/12/20 12:03:31;;;;;;;14.23;3.58;;;4.00;99.90;;;;;;5060741;28;20112;-81
2021/12/20 12:05:59;;;;;;;14.15;3.25;;;4.10;99.90;;;;;;5044799;28;20493;-74
2021/12/20 12:08:27;;;;;;;17.20;2.90;;;4.10;99.90;;;;;;5063511;28;20076;-74
2021/12/20 12:10:56;;;;;;;10.60;2.53;;;4.20;99.90;;;;;;5062363;28;20070;-74
2021/12/20 12:13:24;;;;;;;11.32;2.58;;;4.30;99.90;;;;;;5063085;28;20033;-74
2021/12/20 12:16:02;;;;;;;11.10;2.30;;;4.30;99.90;;;;;;5060979;28;20037;-76
2021/12/20 12:18:45;;;;;;;11.20;2.20;;;4.80;99.90;;;;;;5054110;28;20050;-75
2021/12/20 12:21:33;;;;;;;9.00;2.75;;;4.90;99.90;;;;;;5023065;28;20048;-76
2021/12/20 12:24:07;;;;;;;10.70;2.60;;;4.50;99.90;;;;;;5064779;28;20044;-72
2021/12/20 12:26:39;;;;;;;11.85;2.22;;;4.50;99.90;;;;;;5048036;28;20048;-72
2021/12/20 12:29:07;;;;;;;7.50;2.97;;;4.50;99.90;;;;;;5072340;28;20037;-75
2021/12/20 12:32:02;;;;;;;6.93;1.83;;;4.60;99.90;;;;;;5073735;28;20630;-74
2021/12/20 12:34:42;;;;;;;5.80;1.80;;;4.60;99.90;;;;;;5012371;28;20065;-74
2021/12/20 12:37:16;;;;;;;13.20;1.73;;;5.20;99.90;;;;;;5011619;28;20045;-72
2021/12/20 12:39:42;;;;;;;7.78;1.75;;;4.70;99.90;;;;;;5011838;28;20464;-74
2021/12/20 12:42:08;;;;;;;9.45;2.08;;;4.70;99.90;;;;;;5011600;28;20038;-72
2021/12/20 12:44:34;;;;;;;10.10;1.65;;;4.70;99.90;;;;;;4995072;28;20548;-75
2021/12/20 12:47:04;;;;;;;7.78;1.73;;;4.70;99.90;;;;;;5011838;28;20049;-72
2021/12/20 12:49:36;;;;;;;6.18;1.70;;;4.70;99.90;;;;;;5009328;28;20088;-73
2021/12/20 12:52:29;;;;;;;8.13;1.65;;;4.70;99.90;;;;;;4992100;28;20064;-72
2021/12/20 12:54:56;;;;;;;7.07;1.90;;;4.60;99.90;;;;;;4993670;28;20054;-71
2021/12/20 12:57:25;;;;;;;7.65;2.00;;;4.60;99.90;;;;;;4980255;28;20413;-76
2021/12/20 12:59:54;;;;;;;4.18;1.40;;;4.60;99.90;;;;;;4994149;28;20034;-74
2021/12/20 13:02:27;;;;;;;7.80;1.73;;;4.60;99.90;;;;;;4996652;28;20061;-71
2021/12/20 13:05:13;;;;;;;3.85;1.30;;;4.60;99.90;;;;;;4992411;28;20166;-73